sensor_id;sensor_type;location;lat;lon;timestamp;P1;durP1;ratioP1;P2;durP2;ratioP2
58621;SDS011;44389;51.578;5.456;2023-04-24T00:02:07;14.93;;;13.43;;
58621;SDS011;44389;51.578;5.456;2023-04-24T00:04:35;16.95;;;14.77;;
58621;SDS011;44389;51.578;5.456;2023-04-24T00:07:01;20.42;;;16.77;;
58621;SDS011;44389;51.578;5.456;2023-04-24T00:09:27;22.40;;;17.88;;
58621;SDS011;44389;51.578;5.456;2023-04-24T00:11:52;19.67;;;17.55;;
58621;SDS011;44389;51.578;5.456;2023-04-24T00:14:18;22.85;;;18.52;;
58621;SDS011;44389;51.578;5.456;2023-04-24T00:16:43;25.58;;;19.58;;
58621;SDS011;44389;51.578;5.456;2023-04-24T00:19:09;25.30;;;20.23;;
58621;SDS011;44389;51.578;5.456;2023-04-24T00:21:36;29.05;;;22.00;;
58621;SDS011;44389;51.578;5.456;2023-04-24T00:24:01;26.45;;;22.65;;
58621;SDS011;44389;51.578;5.456;2023-04-24T00:26:26;27.88;;;23.23;;
58621;SDS011;44389;51.578;5.456;2023-04-24T00:28:52;27.83;;;23.73;;
58621;SDS011;44389;51.578;5.456;2023-04-24T00:31:17;30.42;;;25.05;;
58621;SDS011;44389;51.578;5.456;2023-04-24T00:33:42;34.80;;;26.27;;
58621;SDS011;44389;51.578;5.456;2023-04-24T00:36:08;34.22;;;26.10;;
58621;SDS011;44389;51.578;5.456;2023-04-24T00:38:33;35.65;;;27.92;;
58621;SDS011;44389;51.578;5.456;2023-04-24T00:40:58;40.35;;;29.10;;
58621;SDS011;44389;51.578;5.456;2023-04-24T00:43:24;38.78;;;30.35;;
58621;SDS011;44389;51.578;5.456;2023-04-24T00:45:49;39.50;;;29.27;;
58621;SDS011;44389;51.578;5.456;2023-04-24T00:48:15;39.35;;;30.65;;
58621;SDS011;44389;51.578;5.456;2023-04-24T00:50:41;41.10;;;31.55;;
58621;SDS011;44389;51.578;5.456;2023-04-24T00:53:07;41.17;;;31.75;;
58621;SDS011;44389;51.578;5.456;2023-04-24T00:55:32;43.28;;;30.50;;
58621;SDS011;44389;51.578;5.456;2023-04-24T00:57:58;46.17;;;32.13;;
58621;SDS011;44389;51.578;5.456;2023-04-24T01:00:23;45.28;;;34.03;;
58621;SDS011;44389;51.578;5.456;2023-04-24T01:02:49;43.20;;;33.22;;
58621;SDS011;44389;51.578;5.456;2023-04-24T01:05:16;45.83;;;33.38;;
58621;SDS011;44389;51.578;5.456;2023-04-24T01:07:43;44.45;;;32.92;;
58621;SDS011;44389;51.578;5.456;2023-04-24T01:10:10;48.20;;;35.28;;
58621;SDS011;44389;51.578;5.456;2023-04-24T01:12:37;47.75;;;35.75;;
58621;SDS011;44389;51.578;5.456;2023-04-24T01:15:03;49.95;;;35.03;;
58621;SDS011;44389;51.578;5.456;2023-04-24T01:17:28;50.03;;;35.83;;
58621;SDS011;44389;51.578;5.456;2023-04-24T01:19:54;50.80;;;34.97;;
58621;SDS011;44389;51.578;5.456;2023-04-24T01:22:21;50.65;;;35.35;;
58621;SDS011;44389;51.578;5.456;2023-04-24T01:24:47;52.55;;;36.65;;
58621;SDS011;44389;51.578;5.456;2023-04-24T01:27:12;51.35;;;36.33;;
58621;SDS011;44389;51.578;5.456;2023-04-24T01:29:37;47.88;;;35.55;;
58621;SDS011;44389;51.578;5.456;2023-04-24T01:32:03;47.65;;;34.60;;
58621;SDS011;44389;51.578;5.456;2023-04-24T01:34:29;50.65;;;36.15;;
58621;SDS011;44389;51.578;5.456;2023-04-24T01:36:54;48.15;;;37.65;;
58621;SDS011;44389;51.578;5.456;2023-04-24T01:39:21;49.10;;;36.70;;
58621;SDS011;44389;51.578;5.456;2023-04-24T01:41:48;56.88;;;40.17;;
58621;SDS011;44389;51.578;5.456;2023-04-24T01:44:14;52.60;;;40.90;;
58621;SDS011;44389;51.578;5.456;2023-04-24T01:46:40;54.17;;;41.90;;
58621;SDS011;44389;51.578;5.456;2023-04-24T01:49:06;59.22;;;42.88;;
58621;SDS011;44389;51.578;5.456;2023-04-24T01:51:31;58.50;;;43.70;;
58621;SDS011;44389;51.578;5.456;2023-04-24T01:53:56;60.67;;;45.17;;
58621;SDS011;44389;51.578;5.456;2023-04-24T01:56:22;64.65;;;46.65;;
58621;SDS011;44389;51.578;5.456;2023-04-24T01:58:48;69.13;;;48.20;;
58621;SDS011;44389;51.578;5.456;2023-04-24T02:01:17;68.97;;;46.65;;
58621;SDS011;44389;51.578;5.456;2023-04-24T02:03:43;68.80;;;49.67;;
58621;SDS011;44389;51.578;5.456;2023-04-24T02:06:09;70.97;;;49.92;;
58621;SDS011;44389;51.578;5.456;2023-04-24T02:08:34;70.72;;;49.60;;
58621;SDS011;44389;51.578;5.456;2023-04-24T02:11:00;70.20;;;49.13;;
58621;SDS011;44389;51.578;5.456;2023-04-24T02:13:26;67.03;;;49.95;;
58621;SDS011;44389;51.578;5.456;2023-04-24T02:15:52;67.13;;;47.95;;
58621;SDS011;44389;51.578;5.456;2023-04-24T02:18:17;69.60;;;49.80;;
58621;SDS011;44389;51.578;5.456;2023-04-24T02:20:42;73.95;;;48.85;;
58621;SDS011;44389;51.578;5.456;2023-04-24T02:23:07;62.08;;;48.10;;
58621;SDS011;44389;51.578;5.456;2023-04-24T02:25:33;57.25;;;45.78;;
58621;SDS011;44389;51.578;5.456;2023-04-24T02:27:58;60.28;;;45.08;;
58621;SDS011;44389;51.578;5.456;2023-04-24T02:30:23;61.67;;;44.45;;
58621;SDS011;44389;51.578;5.456;2023-04-24T02:32:49;57.08;;;43.30;;
58621;SDS011;44389;51.578;5.456;2023-04-24T02:35:14;56.83;;;42.25;;
58621;SDS011;44389;51.578;5.456;2023-04-24T02:37:39;55.60;;;41.85;;
58621;SDS011;44389;51.578;5.456;2023-04-24T02:40:05;60.58;;;43.80;;
58621;SDS011;44389;51.578;5.456;2023-04-24T02:42:31;54.95;;;42.80;;
58621;SDS011;44389;51.578;5.456;2023-04-24T02:44:56;61.65;;;42.50;;
58621;SDS011;44389;51.578;5.456;2023-04-24T02:47:21;55.85;;;41.95;;
58621;SDS011;44389;51.578;5.456;2023-04-24T02:49:47;58.70;;;44.72;;
58621;SDS011;44389;51.578;5.456;2023-04-24T02:52:12;54.17;;;43.13;;
58621;SDS011;44389;51.578;5.456;2023-04-24T02:54:38;56.42;;;42.65;;
58621;SDS011;44389;51.578;5.456;2023-04-24T02:57:03;61.05;;;43.63;;
58621;SDS011;44389;51.578;5.456;2023-04-24T02:59:28;57.53;;;42.55;;
58621;SDS011;44389;51.578;5.456;2023-04-24T03:01:54;55.50;;;43.63;;
58621;SDS011;44389;51.578;5.456;2023-04-24T03:04:19;56.63;;;43.42;;
58621;SDS011;44389;51.578;5.456;2023-04-24T03:06:45;55.75;;;42.22;;
58621;SDS011;44389;51.578;5.456;2023-04-24T03:09:11;55.20;;;42.00;;
58621;SDS011;44389;51.578;5.456;2023-04-24T03:11:36;56.60;;;42.83;;
58621;SDS011;44389;51.578;5.456;2023-04-24T03:14:01;54.65;;;42.53;;
58621;SDS011;44389;51.578;5.456;2023-04-24T03:16:27;51.28;;;41.63;;
58621;SDS011;44389;51.578;5.456;2023-04-24T03:18:52;55.50;;;41.08;;
58621;SDS011;44389;51.578;5.456;2023-04-24T03:21:17;54.03;;;41.88;;
58621;SDS011;44389;51.578;5.456;2023-04-24T03:23:43;54.65;;;41.58;;
58621;SDS011;44389;51.578;5.456;2023-04-24T03:26:08;53.78;;;41.50;;
58621;SDS011;44389;51.578;5.456;2023-04-24T03:28:33;52.08;;;41.92;;
58621;SDS011;44389;51.578;5.456;2023-04-24T03:30:59;53.58;;;40.60;;
58621;SDS011;44389;51.578;5.456;2023-04-24T03:33:24;49.92;;;39.03;;
58621;SDS011;44389;51.578;5.456;2023-04-24T03:35:50;48.72;;;38.65;;
58621;SDS011;44389;51.578;5.456;2023-04-24T03:38:15;46.75;;;37.60;;
58621;SDS011;44389;51.578;5.456;2023-04-24T03:40:40;46.95;;;37.05;;
58621;SDS011;44389;51.578;5.456;2023-04-24T03:43:06;46.70;;;36.85;;
58621;SDS011;44389;51.578;5.456;2023-04-24T03:45:31;45.38;;;35.33;;
58621;SDS011;44389;51.578;5.456;2023-04-24T03:47:56;45.47;;;36.78;;
58621;SDS011;44389;51.578;5.456;2023-04-24T03:50:21;48.67;;;36.28;;
58621;SDS011;44389;51.578;5.456;2023-04-24T03:52:47;48.20;;;35.78;;
58621;SDS011;44389;51.578;5.456;2023-04-24T03:55:12;42.03;;;32.72;;
58621;SDS011;44389;51.578;5.456;2023-04-24T03:57:39;42.42;;;34.53;;
58621;SDS011;44389;51.578;5.456;2023-04-24T04:00:05;44.08;;;33.72;;
58621;SDS011;44389;51.578;5.456;2023-04-24T04:02:31;42.47;;;33.47;;
58621;SDS011;44389;51.578;5.456;2023-04-24T04:04:56;42.67;;;33.15;;
58621;SDS011;44389;51.578;5.456;2023-04-24T04:07:21;47.60;;;32.55;;
58621;SDS011;44389;51.578;5.456;2023-04-24T04:09:47;41.80;;;31.77;;
58621;SDS011;44389;51.578;5.456;2023-04-24T04:12:12;41.30;;;32.53;;
58621;SDS011;44389;51.578;5.456;2023-04-24T04:14:37;42.95;;;31.08;;
58621;SDS011;44389;51.578;5.456;2023-04-24T04:17:03;40.00;;;30.88;;
58621;SDS011;44389;51.578;5.456;2023-04-24T04:19:28;44.22;;;32.40;;
58621;SDS011;44389;51.578;5.456;2023-04-24T04:21:53;46.30;;;33.38;;
58621;SDS011;44389;51.578;5.456;2023-04-24T04:24:21;40.30;;;32.67;;
58621;SDS011;44389;51.578;5.456;2023-04-24T04:26:47;44.60;;;32.63;;
58621;SDS011;44389;51.578;5.456;2023-04-24T04:29:16;42.58;;;32.72;;
58621;SDS011;44389;51.578;5.456;2023-04-24T04:31:43;39.80;;;32.92;;
58621;SDS011;44389;51.578;5.456;2023-04-24T04:34:08;36.45;;;31.48;;
58621;SDS011;44389;51.578;5.456;2023-04-24T04:36:34;42.17;;;32.50;;
58621;SDS011;44389;51.578;5.456;2023-04-24T04:39:01;39.00;;;32.38;;
58621;SDS011;44389;51.578;5.456;2023-04-24T04:41:27;42.50;;;33.63;;
58621;SDS011;44389;51.578;5.456;2023-04-24T04:43:53;39.08;;;33.05;;
58621;SDS011;44389;51.578;5.456;2023-04-24T04:46:18;42.83;;;33.72;;
58621;SDS011;44389;51.578;5.456;2023-04-24T04:48:43;40.25;;;33.03;;
58621;SDS011;44389;51.578;5.456;2023-04-24T04:51:09;36.92;;;31.15;;
58621;SDS011;44389;51.578;5.456;2023-04-24T04:53:34;38.50;;;31.45;;
58621;SDS011;44389;51.578;5.456;2023-04-24T04:56:00;39.88;;;31.98;;
58621;SDS011;44389;51.578;5.456;2023-04-24T04:58:25;37.88;;;31.30;;
58621;SDS011;44389;51.578;5.456;2023-04-24T05:00:51;35.03;;;30.25;;
58621;SDS011;44389;51.578;5.456;2023-04-24T05:03:17;35.92;;;31.27;;
58621;SDS011;44389;51.578;5.456;2023-04-24T05:05:42;32.88;;;29.20;;
58621;SDS011;44389;51.578;5.456;2023-04-24T05:08:07;31.25;;;27.70;;
58621;SDS011;44389;51.578;5.456;2023-04-24T05:10:33;35.13;;;29.40;;
58621;SDS011;44389;51.578;5.456;2023-04-24T05:12:58;32.30;;;26.73;;
58621;SDS011;44389;51.578;5.456;2023-04-24T05:15:24;33.97;;;27.02;;
58621;SDS011;44389;51.578;5.456;2023-04-24T05:17:49;30.38;;;26.25;;
58621;SDS011;44389;51.578;5.456;2023-04-24T05:20:15;30.88;;;26.17;;
58621;SDS011;44389;51.578;5.456;2023-04-24T05:22:40;32.58;;;24.85;;
58621;SDS011;44389;51.578;5.456;2023-04-24T05:25:05;30.63;;;24.58;;
58621;SDS011;44389;51.578;5.456;2023-04-24T05:27:31;29.45;;;24.02;;
58621;SDS011;44389;51.578;5.456;2023-04-24T05:29:56;28.83;;;24.40;;
58621;SDS011;44389;51.578;5.456;2023-04-24T05:32:21;32.33;;;25.63;;
58621;SDS011;44389;51.578;5.456;2023-04-24T05:34:47;32.50;;;23.77;;
58621;SDS011;44389;51.578;5.456;2023-04-24T05:37:12;25.42;;;21.00;;
58621;SDS011;44389;51.578;5.456;2023-04-24T05:39:37;21.52;;;18.38;;
58621;SDS011;44389;51.578;5.456;2023-04-24T05:42:03;17.90;;;15.07;;
58621;SDS011;44389;51.578;5.456;2023-04-24T05:44:29;22.25;;;15.05;;
58621;SDS011;44389;51.578;5.456;2023-04-24T05:46:55;17.45;;;12.13;;
58621;SDS011;44389;51.578;5.456;2023-04-24T05:49:21;12.73;;;8.50;;
58621;SDS011;44389;51.578;5.456;2023-04-24T05:51:47;12.70;;;9.23;;
58621;SDS011;44389;51.578;5.456;2023-04-24T05:54:12;11.52;;;8.07;;
58621;SDS011;44389;51.578;5.456;2023-04-24T05:56:38;11.25;;;8.27;;
58621;SDS011;44389;51.578;5.456;2023-04-24T05:59:04;12.40;;;8.57;;
58621;SDS011;44389;51.578;5.456;2023-04-24T06:01:29;10.25;;;8.57;;
58621;SDS011;44389;51.578;5.456;2023-04-24T06:03:54;13.25;;;8.77;;
58621;SDS011;44389;51.578;5.456;2023-04-24T06:06:20;12.10;;;10.77;;
58621;SDS011;44389;51.578;5.456;2023-04-24T06:08:45;13.48;;;11.05;;
58621;SDS011;44389;51.578;5.456;2023-04-24T06:11:11;14.60;;;12.73;;
58621;SDS011;44389;51.578;5.456;2023-04-24T06:13:36;17.30;;;12.93;;
58621;SDS011;44389;51.578;5.456;2023-04-24T06:16:01;16.00;;;13.75;;
58621;SDS011;44389;51.578;5.456;2023-04-24T06:18:27;15.52;;;13.73;;
58621;SDS011;44389;51.578;5.456;2023-04-24T06:20:52;20.13;;;15.13;;
58621;SDS011;44389;51.578;5.456;2023-04-24T06:23:17;17.05;;;15.25;;
58621;SDS011;44389;51.578;5.456;2023-04-24T06:25:43;19.50;;;16.48;;
58621;SDS011;44389;51.578;5.456;2023-04-24T06:28:08;20.48;;;18.02;;
58621;SDS011;44389;51.578;5.456;2023-04-24T06:30:33;20.48;;;17.90;;
58621;SDS011;44389;51.578;5.456;2023-04-24T06:32:58;21.00;;;18.67;;
58621;SDS011;44389;51.578;5.456;2023-04-24T06:35:24;19.17;;;17.17;;
58621;SDS011;44389;51.578;5.456;2023-04-24T06:37:49;19.05;;;17.05;;
58621;SDS011;44389;51.578;5.456;2023-04-24T06:40:15;18.50;;;16.48;;
58621;SDS011;44389;51.578;5.456;2023-04-24T06:42:40;16.95;;;15.07;;
58621;SDS011;44389;51.578;5.456;2023-04-24T06:45:06;19.00;;;14.07;;
58621;SDS011;44389;51.578;5.456;2023-04-24T06:47:31;16.30;;;12.55;;
58621;SDS011;44389;51.578;5.456;2023-04-24T06:49:57;15.60;;;12.70;;
58621;SDS011;44389;51.578;5.456;2023-04-24T06:52:22;15.93;;;12.05;;
58621;SDS011;44389;51.578;5.456;2023-04-24T06:54:47;17.05;;;13.43;;
58621;SDS011;44389;51.578;5.456;2023-04-24T06:57:13;16.33;;;12.45;;
58621;SDS011;44389;51.578;5.456;2023-04-24T06:59:38;18.17;;;12.57;;
58621;SDS011;44389;51.578;5.456;2023-04-24T07:02:03;14.20;;;11.75;;
58621;SDS011;44389;51.578;5.456;2023-04-24T07:04:29;17.65;;;11.95;;
58621;SDS011;44389;51.578;5.456;2023-04-24T07:06:55;17.48;;;13.63;;
58621;SDS011;44389;51.578;5.456;2023-04-24T07:09:21;22.38;;;16.80;;
58621;SDS011;44389;51.578;5.456;2023-04-24T07:11:50;25.73;;;18.67;;
58621;SDS011;44389;51.578;5.456;2023-04-24T07:14:16;28.90;;;19.15;;
58621;SDS011;44389;51.578;5.456;2023-04-24T07:16:42;26.50;;;20.17;;
58621;SDS011;44389;51.578;5.456;2023-04-24T07:19:07;30.30;;;20.77;;
58621;SDS011;44389;51.578;5.456;2023-04-24T07:21:33;26.27;;;19.83;;
58621;SDS011;44389;51.578;5.456;2023-04-24T07:23:58;31.90;;;21.55;;
58621;SDS011;44389;51.578;5.456;2023-04-24T07:26:25;28.85;;;20.55;;
58621;SDS011;44389;51.578;5.456;2023-04-24T07:28:51;31.00;;;20.83;;
58621;SDS011;44389;51.578;5.456;2023-04-24T07:31:16;30.75;;;20.58;;
58621;SDS011;44389;51.578;5.456;2023-04-24T07:33:41;34.53;;;21.70;;
58621;SDS011;44389;51.578;5.456;2023-04-24T07:36:07;28.00;;;18.23;;
58621;SDS011;44389;51.578;5.456;2023-04-24T07:38:32;34.03;;;20.20;;
58621;SDS011;44389;51.578;5.456;2023-04-24T07:40:58;30.77;;;20.42;;
58621;SDS011;44389;51.578;5.456;2023-04-24T07:43:23;32.50;;;21.52;;
58621;SDS011;44389;51.578;5.456;2023-04-24T07:45:49;34.67;;;19.77;;
58621;SDS011;44389;51.578;5.456;2023-04-24T07:48:15;31.30;;;17.77;;
58621;SDS011;44389;51.578;5.456;2023-04-24T07:50:42;23.70;;;14.27;;
58621;SDS011;44389;51.578;5.456;2023-04-24T07:53:08;22.98;;;13.80;;
58621;SDS011;44389;51.578;5.456;2023-04-24T07:55:33;27.13;;;13.55;;
58621;SDS011;44389;51.578;5.456;2023-04-24T07:57:58;29.83;;;14.00;;
58621;SDS011;44389;51.578;5.456;2023-04-24T08:00:24;32.50;;;13.68;;
58621;SDS011;44389;51.578;5.456;2023-04-24T08:02:49;28.38;;;13.27;;
58621;SDS011;44389;51.578;5.456;2023-04-24T08:05:14;28.98;;;14.38;;
58621;SDS011;44389;51.578;5.456;2023-04-24T08:07:40;28.75;;;13.32;;
58621;SDS011;44389;51.578;5.456;2023-04-24T08:10:09;33.38;;;12.50;;
58621;SDS011;44389;51.578;5.456;2023-04-24T08:12:35;28.98;;;12.60;;
58621;SDS011;44389;51.578;5.456;2023-04-24T08:15:02;30.85;;;12.98;;
58621;SDS011;44389;51.578;5.456;2023-04-24T08:17:27;33.30;;;13.50;;
58621;SDS011;44389;51.578;5.456;2023-04-24T08:19:52;32.75;;;13.88;;
58621;SDS011;44389;51.578;5.456;2023-04-24T08:22:23;30.50;;;13.63;;
58621;SDS011;44389;51.578;5.456;2023-04-24T08:24:49;30.60;;;13.32;;
58621;SDS011;44389;51.578;5.456;2023-04-24T08:27:14;35.00;;;14.25;;
58621;SDS011;44389;51.578;5.456;2023-04-24T08:29:39;33.20;;;14.90;;
58621;SDS011;44389;51.578;5.456;2023-04-24T08:32:05;32.33;;;14.40;;
58621;SDS011;44389;51.578;5.456;2023-04-24T08:34:30;36.15;;;14.65;;
58621;SDS011;44389;51.578;5.456;2023-04-24T08:36:55;24.20;;;9.85;;
58621;SDS011;44389;51.578;5.456;2023-04-24T08:39:21;17.85;;;8.15;;
58621;SDS011;44389;51.578;5.456;2023-04-24T08:41:46;27.02;;;10.90;;
58621;SDS011;44389;51.578;5.456;2023-04-24T08:44:13;35.47;;;12.77;;
58621;SDS011;44389;51.578;5.456;2023-04-24T08:46:40;25.67;;;11.13;;
58621;SDS011;44389;51.578;5.456;2023-04-24T08:49:07;27.58;;;11.73;;
58621;SDS011;44389;51.578;5.456;2023-04-24T08:51:32;31.60;;;10.77;;
58621;SDS011;44389;51.578;5.456;2023-04-24T08:53:58;28.10;;;11.10;;
58621;SDS011;44389;51.578;5.456;2023-04-24T08:56:23;28.60;;;9.70;;
58621;SDS011;44389;51.578;5.456;2023-04-24T08:58:50;30.05;;;10.60;;
58621;SDS011;44389;51.578;5.456;2023-04-24T09:01:17;27.98;;;10.48;;
58621;SDS011;44389;51.578;5.456;2023-04-24T09:03:44;30.90;;;11.02;;
58621;SDS011;44389;51.578;5.456;2023-04-24T09:06:13;31.90;;;11.52;;
58621;SDS011;44389;51.578;5.456;2023-04-24T09:08:39;33.40;;;10.50;;
58621;SDS011;44389;51.578;5.456;2023-04-24T09:11:07;30.02;;;8.85;;
58621;SDS011;44389;51.578;5.456;2023-04-24T09:13:33;22.02;;;6.70;;
58621;SDS011;44389;51.578;5.456;2023-04-24T09:15:58;20.33;;;7.07;;
58621;SDS011;44389;51.578;5.456;2023-04-24T09:18:25;20.45;;;6.72;;
58621;SDS011;44389;51.578;5.456;2023-04-24T09:23:47;21.17;;;6.15;;
58621;SDS011;44389;51.578;5.456;2023-04-24T09:26:23;22.50;;;5.80;;
58621;SDS011;44389;51.578;5.456;2023-04-24T09:28:49;21.10;;;6.47;;
58621;SDS011;44389;51.578;5.456;2023-04-24T09:31:15;22.00;;;6.10;;
58621;SDS011;44389;51.578;5.456;2023-04-24T09:33:59;18.73;;;5.95;;
58621;SDS011;44389;51.578;5.456;2023-04-24T09:36:29;21.20;;;5.47;;
58621;SDS011;44389;51.578;5.456;2023-04-24T09:38:57;23.55;;;5.85;;
58621;SDS011;44389;51.578;5.456;2023-04-24T09:41:23;18.13;;;5.97;;
58621;SDS011;44389;51.578;5.456;2023-04-24T09:43:48;14.60;;;5.13;;
58621;SDS011;44389;51.578;5.456;2023-04-24T09:46:14;17.83;;;5.15;;
58621;SDS011;44389;51.578;5.456;2023-04-24T09:48:39;22.20;;;5.75;;
58621;SDS011;44389;51.578;5.456;2023-04-24T09:51:05;20.38;;;6.38;;
58621;SDS011;44389;51.578;5.456;2023-04-24T09:53:32;19.17;;;6.17;;
58621;SDS011;44389;51.578;5.456;2023-04-24T09:56:10;22.95;;;6.13;;
58621;SDS011;44389;51.578;5.456;2023-04-24T09:58:37;20.55;;;6.82;;
58621;SDS011;44389;51.578;5.456;2023-04-24T10:01:03;19.80;;;6.22;;
58621;SDS011;44389;51.578;5.456;2023-04-24T10:03:32;24.73;;;6.40;;
58621;SDS011;44389;51.578;5.456;2023-04-24T10:05:59;20.70;;;6.00;;
58621;SDS011;44389;51.578;5.456;2023-04-24T10:08:24;19.48;;;5.13;;
58621;SDS011;44389;51.578;5.456;2023-04-24T10:10:51;16.38;;;4.22;;
58621;SDS011;44389;51.578;5.456;2023-04-24T10:13:17;12.63;;;4.05;;
58621;SDS011;44389;51.578;5.456;2023-04-24T10:15:42;10.85;;;3.85;;
58621;SDS011;44389;51.578;5.456;2023-04-24T10:18:08;13.35;;;3.35;;
58621;SDS011;44389;51.578;5.456;2023-04-24T10:20:35;15.30;;;5.13;;
58621;SDS011;44389;51.578;5.456;2023-04-24T10:23:02;15.70;;;4.70;;
58621;SDS011;44389;51.578;5.456;2023-04-24T10:25:32;14.05;;;3.60;;
58621;SDS011;44389;51.578;5.456;2023-04-24T10:27:59;11.75;;;3.38;;
58621;SDS011;44389;51.578;5.456;2023-04-24T10:30:27;14.97;;;5.83;;
58621;SDS011;44389;51.578;5.456;2023-04-24T10:35:19;12.80;;;3.15;;
58621;SDS011;44389;51.578;5.456;2023-04-24T10:37:54;7.75;;;2.22;;
58621;SDS011;44389;51.578;5.456;2023-04-24T10:40:26;6.20;;;2.17;;
58621;SDS011;44389;51.578;5.456;2023-04-24T10:42:54;6.53;;;3.20;;
58621;SDS011;44389;51.578;5.456;2023-04-24T10:45:21;12.73;;;6.05;;
58621;SDS011;44389;51.578;5.456;2023-04-24T10:47:51;9.85;;;4.18;;
58621;SDS011;44389;51.578;5.456;2023-04-24T10:50:27;7.82;;;2.80;;
58621;SDS011;44389;51.578;5.456;2023-04-24T10:53:07;4.63;;;2.28;;
58621;SDS011;44389;51.578;5.456;2023-04-24T10:55:47;13.30;;;3.58;;
58621;SDS011;44389;51.578;5.456;2023-04-24T10:58:15;7.20;;;2.90;;
58621;SDS011;44389;51.578;5.456;2023-04-24T11:00:42;9.95;;;3.95;;
58621;SDS011;44389;51.578;5.456;2023-04-24T11:05:49;11.20;;;2.90;;
58621;SDS011;44389;51.578;5.456;2023-04-24T11:08:16;8.15;;;2.10;;
58621;SDS011;44389;51.578;5.456;2023-04-24T11:10:47;8.32;;;2.20;;
58621;SDS011;44389;51.578;5.456;2023-04-24T11:13:21;8.77;;;2.15;;
58621;SDS011;44389;51.578;5.456;2023-04-24T11:19:06;8.57;;;2.17;;
58621;SDS011;44389;51.578;5.456;2023-04-24T11:21:38;6.38;;;2.15;;
58621;SDS011;44389;51.578;5.456;2023-04-24T11:26:48;4.85;;;1.60;;
58621;SDS011;44389;51.578;5.456;2023-04-24T11:29:15;9.65;;;2.80;;
58621;SDS011;44389;51.578;5.456;2023-04-24T11:31:41;6.68;;;1.90;;
58621;SDS011;44389;51.578;5.456;2023-04-24T11:34:15;8.05;;;3.40;;
58621;SDS011;44389;51.578;5.456;2023-04-24T11:36:47;8.95;;;2.72;;
58621;SDS011;44389;51.578;5.456;2023-04-24T11:39:13;12.48;;;2.00;;
58621;SDS011;44389;51.578;5.456;2023-04-24T11:41:39;10.60;;;2.15;;
58621;SDS011;44389;51.578;5.456;2023-04-24T11:44:06;12.25;;;2.65;;
58621;SDS011;44389;51.578;5.456;2023-04-24T11:46:33;9.90;;;2.30;;
58621;SDS011;44389;51.578;5.456;2023-04-24T11:48:58;6.00;;;1.90;;
58621;SDS011;44389;51.578;5.456;2023-04-24T11:51:25;6.68;;;1.60;;
58621;SDS011;44389;51.578;5.456;2023-04-24T11:53:51;7.50;;;1.95;;
58621;SDS011;44389;51.578;5.456;2023-04-24T11:56:18;7.70;;;2.10;;
58621;SDS011;44389;51.578;5.456;2023-04-24T11:58:44;7.72;;;1.90;;
58621;SDS011;44389;51.578;5.456;2023-04-24T12:01:10;8.65;;;2.17;;
58621;SDS011;44389;51.578;5.456;2023-04-24T12:03:36;8.32;;;2.50;;
58621;SDS011;44389;51.578;5.456;2023-04-24T12:06:05;5.50;;;2.20;;
58621;SDS011;44389;51.578;5.456;2023-04-24T12:08:34;8.27;;;2.28;;
58621;SDS011;44389;51.578;5.456;2023-04-24T12:11:00;9.05;;;2.58;;
58621;SDS011;44389;51.578;5.456;2023-04-24T12:13:26;9.60;;;3.13;;
58621;SDS011;44389;51.578;5.456;2023-04-24T12:15:51;11.32;;;2.13;;
58621;SDS011;44389;51.578;5.456;2023-04-24T12:18:17;6.82;;;2.10;;
58621;SDS011;44389;51.578;5.456;2023-04-24T12:20:42;6.15;;;1.80;;
58621;SDS011;44389;51.578;5.456;2023-04-24T12:23:07;7.65;;;1.90;;
58621;SDS011;44389;51.578;5.456;2023-04-24T12:25:33;10.20;;;1.92;;
58621;SDS011;44389;51.578;5.456;2023-04-24T12:30:28;6.07;;;1.65;;
58621;SDS011;44389;51.578;5.456;2023-04-24T12:32:54;6.85;;;2.03;;
58621;SDS011;44389;51.578;5.456;2023-04-24T12:35:20;5.45;;;1.85;;
58621;SDS011;44389;51.578;5.456;2023-04-24T12:37:47;7.30;;;1.95;;
58621;SDS011;44389;51.578;5.456;2023-04-24T12:40:13;7.35;;;1.70;;
58621;SDS011;44389;51.578;5.456;2023-04-24T12:42:46;9.65;;;1.90;;
58621;SDS011;44389;51.578;5.456;2023-04-24T12:45:13;7.15;;;2.22;;
58621;SDS011;44389;51.578;5.456;2023-04-24T12:47:40;8.02;;;2.28;;
58621;SDS011;44389;51.578;5.456;2023-04-24T12:50:07;6.78;;;1.95;;
58621;SDS011;44389;51.578;5.456;2023-04-24T12:52:33;7.63;;;1.88;;
58621;SDS011;44389;51.578;5.456;2023-04-24T12:54:59;8.02;;;1.60;;
58621;SDS011;44389;51.578;5.456;2023-04-24T12:57:26;5.20;;;1.70;;
58621;SDS011;44389;51.578;5.456;2023-04-24T12:59:56;5.73;;;1.93;;
58621;SDS011;44389;51.578;5.456;2023-04-24T13:02:24;7.25;;;2.00;;
58621;SDS011;44389;51.578;5.456;2023-04-24T13:04:51;5.65;;;1.55;;
58621;SDS011;44389;51.578;5.456;2023-04-24T13:07:16;4.63;;;1.80;;
58621;SDS011;44389;51.578;5.456;2023-04-24T13:09:42;6.47;;;2.10;;
58621;SDS011;44389;51.578;5.456;2023-04-24T13:12:09;4.55;;;2.40;;
58621;SDS011;44389;51.578;5.456;2023-04-24T13:14:35;5.57;;;2.25;;
58621;SDS011;44389;51.578;5.456;2023-04-24T13:17:01;6.28;;;1.60;;
58621;SDS011;44389;51.578;5.456;2023-04-24T13:19:27;7.72;;;2.10;;
58621;SDS011;44389;51.578;5.456;2023-04-24T13:21:56;6.60;;;2.25;;
58621;SDS011;44389;51.578;5.456;2023-04-24T13:24:25;5.32;;;1.77;;
58621;SDS011;44389;51.578;5.456;2023-04-24T13:26:51;6.68;;;2.00;;
58621;SDS011;44389;51.578;5.456;2023-04-24T13:29:21;6.20;;;1.80;;
58621;SDS011;44389;51.578;5.456;2023-04-24T13:31:47;7.38;;;1.55;;
58621;SDS011;44389;51.578;5.456;2023-04-24T13:34:14;5.65;;;2.00;;
58621;SDS011;44389;51.578;5.456;2023-04-24T13:36:40;4.65;;;1.80;;
58621;SDS011;44389;51.578;5.456;2023-04-24T13:39:05;6.93;;;1.90;;
58621;SDS011;44389;51.578;5.456;2023-04-24T13:41:32;8.32;;;2.40;;
58621;SDS011;44389;51.578;5.456;2023-04-24T13:43:58;8.02;;;2.15;;
58621;SDS011;44389;51.578;5.456;2023-04-24T13:46:23;7.90;;;2.25;;
58621;SDS011;44389;51.578;5.456;2023-04-24T13:48:48;8.15;;;2.60;;
58621;SDS011;44389;51.578;5.456;2023-04-24T13:51:14;5.00;;;2.20;;
58621;SDS011;44389;51.578;5.456;2023-04-24T13:53:39;10.27;;;2.42;;
58621;SDS011;44389;51.578;5.456;2023-04-24T13:56:05;10.15;;;2.60;;
58621;SDS011;44389;51.578;5.456;2023-04-24T13:58:30;7.97;;;3.20;;
58621;SDS011;44389;51.578;5.456;2023-04-24T14:00:57;7.05;;;3.03;;
58621;SDS011;44389;51.578;5.456;2023-04-24T14:03:23;6.85;;;2.83;;
58621;SDS011;44389;51.578;5.456;2023-04-24T14:05:48;7.07;;;2.25;;
58621;SDS011;44389;51.578;5.456;2023-04-24T14:08:13;7.05;;;2.25;;
58621;SDS011;44389;51.578;5.456;2023-04-24T14:10:38;7.57;;;2.70;;
58621;SDS011;44389;51.578;5.456;2023-04-24T14:13:04;8.05;;;2.70;;
58621;SDS011;44389;51.578;5.456;2023-04-24T14:15:29;6.63;;;2.65;;
58621;SDS011;44389;51.578;5.456;2023-04-24T14:17:54;7.18;;;2.42;;
58621;SDS011;44389;51.578;5.456;2023-04-24T14:20:20;6.85;;;2.70;;
58621;SDS011;44389;51.578;5.456;2023-04-24T14:22:45;7.28;;;2.60;;
58621;SDS011;44389;51.578;5.456;2023-04-24T14:25:11;7.80;;;2.55;;
58621;SDS011;44389;51.578;5.456;2023-04-24T14:27:36;6.88;;;2.40;;
58621;SDS011;44389;51.578;5.456;2023-04-24T14:30:01;6.72;;;2.30;;
58621;SDS011;44389;51.578;5.456;2023-04-24T14:32:27;6.10;;;2.30;;
58621;SDS011;44389;51.578;5.456;2023-04-24T14:34:53;9.15;;;2.13;;
58621;SDS011;44389;51.578;5.456;2023-04-24T14:37:18;6.85;;;2.60;;
58621;SDS011;44389;51.578;5.456;2023-04-24T14:39:44;8.20;;;2.67;;
58621;SDS011;44389;51.578;5.456;2023-04-24T14:42:10;8.10;;;2.20;;